Time;durP1;ratioP1;P1;durP2;ratioP2;P2;SDS_P1;SDS_P2;PMS_P1;PMS_P2;Temp;Humidity;BMP_temperature;BMP_pressure;BME280_temperature;BME280_humidity;BME280_pressure;Samples;Min_cycle;Max_cycle;Signal;HPM_P1;HPM_P2
2022/05/29 00:01:46;;;;;;;1.05;0.20;;;;;;;11.28;100.00;99274.91;1709520;82;21069;-46
2022/05/29 00:04:13;;;;;;;1.27;0.20;;;;;;;11.32;100.00;99276.45;1708940;82;21044;-47
2022/05/29 00:06:44;;;;;;;0.50;0.25;;;;;;;11.35;100.00;99267.33;1703845;82;21076;-47
2022/05/29 00:09:15;;;;;;;0.53;0.20;;;;;;;11.40;100.00;99261.69;1707337;82;21610;-48
2022/05/29 00:11:42;;;;;;;1.35;0.30;;;;;;;11.42;100.00;99261.97;1706639;82;21100;-44
2022/05/29 00:14:08;;;;;;;0.50;0.20;;;;;;;11.48;100.00;99267.48;1707880;82;21052;-48
2022/05/29 00:16:35;;;;;;;0.75;0.20;;;;;;;11.51;100.00;99264.11;1715658;82;21539;-49
2022/05/29 00:19:03;;;;;;;3.70;0.40;;;;;;;11.54;100.00;99262.59;1706591;82;21056;-45
2022/05/29 00:21:32;;;;;;;0.68;0.30;;;;;;;11.57;100.00;99261.55;1705437;82;21056;-45
2022/05/29 00:23:59;;;;;;;1.27;0.30;;;;;;;11.59;100.00;99265.87;1704183;81;21124;-48
2022/05/29 00:26:25;;;;;;;2.45;0.30;;;;;;;11.63;100.00;99271.95;1710867;82;21080;-46
2022/05/29 00:28:52;;;;;;;1.45;0.30;;;;;;;11.63;100.00;99270.13;1707380;82;21148;-50
2022/05/29 00:31:19;;;;;;;2.52;0.30;;;;;;;11.66;100.00;99273.10;1704438;82;21144;-46
2022/05/29 00:33:46;;;;;;;0.60;0.25;;;;;;;11.66;100.00;99273.10;1705299;82;21133;-44
2022/05/29 00:36:15;;;;;;;0.70;0.30;;;;;;;11.68;100.00;99270.71;1710412;82;21151;-45
2022/05/29 00:38:44;;;;;;;1.00;0.30;;;;;;;11.70;100.00;99262.53;1711610;82;20958;-45
2022/05/29 00:41:30;;;;;;;0.55;0.30;;;;;;;11.74;100.00;99274.85;1666832;84;20973;-46
2022/05/29 00:44:14;;;;;;;0.53;0.28;;;;;;;11.77;100.00;99268.45;1709709;81;20954;-46
2022/05/29 00:46:58;;;;;;;0.78;0.30;;;;;;;11.82;100.00;99271.75;1708064;82;21034;-48
2022/05/29 00:49:28;;;;;;;0.50;0.30;;;;;;;11.85;100.00;99273.77;1708283;82;20961;-45
2022/05/29 00:52:06;;;;;;;0.50;0.23;;;;;;;11.89;100.00;99279.85;1713877;82;20953;-45
2022/05/29 00:54:42;;;;;;;1.50;0.30;;;;;;;11.90;100.00;99282.94;1703957;81;21397;-46
2022/05/29 00:57:14;;;;;;;0.57;0.25;;;;;;;11.90;100.00;99290.55;1720952;81;21481;-47
2022/05/29 00:59:41;;;;;;;1.45;0.30;;;;;;;11.90;100.00;99290.55;1729297;81;21382;-48
2022/05/29 01:02:07;;;;;;;0.45;0.20;;;;;;;11.90;100.00;99291.03;1724834;81;21089;-46
2022/05/29 01:04:35;;;;;;;1.10;0.20;;;;;;;11.88;100.00;99285.72;1721459;81;21101;-45
2022/05/29 01:07:08;;;;;;;0.50;0.30;;;;;;;11.88;100.00;99285.72;1717618;81;21397;-46
2022/05/29 01:09:36;;;;;;;1.45;0.30;;;;;;;11.89;100.00;99281.20;1721669;81;20959;-48
2022/05/29 01:12:38;;;;;;;0.70;0.30;;;;;;;11.89;100.00;99279.85;1723949;81;21730;-48
2022/05/29 01:15:45;;;;;;;1.77;0.20;;;;;;;11.89;100.00;99279.38;1721283;81;20891;-45
2022/05/29 01:18:32;;;;;;;2.83;0.23;;;;;;;11.89;100.00;99280.72;1727945;81;20885;-46
2022/05/29 01:21:30;;;;;;;0.30;0.20;;;;;;;11.90;100.00;99295.08;1727616;81;20986;-45
2022/05/29 01:24:39;;;;;;;2.00;0.30;;;;;;;11.92;100.00;99283.69;1723886;81;21159;-46
2022/05/29 01:27:25;;;;;;;1.02;0.30;;;;;;;11.94;100.00;99287.17;1717775;81;23092;-45
2022/05/29 01:30:15;;;;;;;1.22;0.30;;;;;;;11.97;100.00;99291.91;1726082;81;20933;-47
2022/05/29 01:33:05;;;;;;;0.82;0.30;;;;;;;12.01;100.00;99297.96;1716025;81;21089;-47
2022/05/29 01:35:52;;;;;;;1.07;0.23;;;;;;;12.06;100.00;99299.92;1728276;81;21558;-46
2022/05/29 01:38:31;;;;;;;0.57;0.20;;;;;;;12.08;100.00;99304.71;1720794;81;21157;-47
2022/05/29 01:41:02;;;;;;;0.50;0.30;;;;;;;12.08;100.00;99308.28;1725882;81;21152;-46
2022/05/29 01:43:44;;;;;;;0.50;0.28;;;;;;;12.09;100.00;99318.59;1725625;81;20994;-45
2022/05/29 01:46:18;;;;;;;0.42;0.20;;;;;;;12.08;100.00;99319.55;1731370;81;21112;-46
2022/05/29 01:49:05;;;;;;;0.95;0.30;;;;;;;12.07;100.00;99324.59;1722880;81;21066;-45
2022/05/29 01:51:46;;;;;;;1.27;0.80;;;;;;;12.07;100.00;99325.94;1728869;81;21056;-49
2022/05/29 01:54:16;;;;;;;2.12;0.30;;;;;;;12.05;100.00;99314.36;1735204;81;21844;-52
2022/05/29 01:56:50;;;;;;;0.53;0.20;;;;;;;12.03;100.00;99315.80;1734201;80;21079;-51
2022/05/29 01:59:25;;;;;;;0.47;0.20;;;;;;;12.01;100.00;99309.63;1736083;80;21510;-50
2022/05/29 02:01:56;;;;;;;0.57;0.20;;;;;;;12.00;100.00;99315.98;1729690;81;21487;-51
2022/05/29 02:04:25;;;;;;;1.00;0.20;;;;;;;12.00;100.00;99319.16;1710207;80;21613;-51
2022/05/29 02:09:46;;;;;;;;;;;;;;;11.96;100.00;99330.63;1738312;80;21322;-50
2022/05/29 02:12:16;;;;;;;0.40;0.20;;;;;;;11.95;100.00;99330.72;1737491;80;20159;-51
2022/05/29 02:14:50;;;;;;;0.23;0.20;;;;;;;11.91;100.00;99338.11;1734977;80;21089;-51
2022/05/29 02:17:20;;;;;;;1.22;0.13;;;;;;;11.90;100.00;99328.31;1733203;80;21045;-49
2022/05/29 02:20:05;;;;;;;0.93;0.20;;;;;;;11.88;100.00;99328.88;1734889;80;21108;-50
2022/05/29 02:22:32;;;;;;;0.40;0.20;;;;;;;11.86;100.00;99336.18;1731053;80;21077;-50
2022/05/29 02:25:18;;;;;;;0.50;0.17;;;;;;;11.85;100.00;99340.31;1735829;80;21136;-50
2022/05/29 02:28:02;;;;;;;0.88;0.20;;;;;;;11.83;100.00;99349.84;1736259;80;21056;-50
2022/05/29 02:30:34;;;;;;;0.42;0.20;;;;;;;11.81;100.00;99349.08;1738102;80;21066;-50
2022/05/29 02:33:18;;;;;;;0.20;0.10;;;;;;;11.81;100.00;99342.82;1736866;80;21439;-51
2022/05/29 02:35:56;;;;;;;0.30;0.20;;;;;;;11.82;100.00;99335.99;1738312;80;21026;-50
2022/05/29 02:38:34;;;;;;;0.20;0.10;;;;;;;11.84;100.00;99334.52;1737821;80;21069;-51
2022/05/29 02:41:09;;;;;;;0.60;0.20;;;;;;;11.87;100.00;99337.05;1738924;80;21033;-50
2022/05/29 02:43:58;;;;;;;0.40;0.20;;;;;;;11.89;100.00;99338.70;1742968;80;21726;-50
2022/05/29 02:46:52;;;;;;;0.40;0.20;;;;;;;11.91;100.00;99323.78;1737422;80;21163;-50
2022/05/29 02:49:24;;;;;;;0.35;0.20;;;;;;;11.92;100.00;99335.80;1740720;80;21120;-51
2022/05/29 02:52:06;;;;;;;0.35;0.20;;;;;;;11.94;100.00;99339.77;1728020;81;21084;-49
2022/05/29 02:54:33;;;;;;;0.40;0.20;;;;;;;11.91;100.00;99328.67;1731604;80;21098;-50
2022/05/29 02:57:00;;;;;;;0.28;0.20;;;;;;;11.90;100.00;99331.00;1732477;81;21050;-51
2022/05/29 02:59:32;;;;;;;0.10;0.10;;;;;;;11.89;100.00;99330.61;1735107;80;21130;-51
2022/05/29 03:02:19;;;;;;;0.37;0.20;;;;;;;11.88;100.00;99332.92;1726966;80;21039;-50
2022/05/29 03:04:57;;;;;;;0.33;0.15;;;;;;;11.86;100.00;99326.73;1728618;80;21117;-50
2022/05/29 03:07:35;;;;;;;0.60;0.20;;;;;;;11.86;100.00;99322.70;1729940;80;21077;-51
2022/05/29 03:10:27;;;;;;;0.30;0.20;;;;;;;11.85;100.00;99316.91;1732154;80;21056;-49
2022/05/29 03:13:16;;;;;;;0.35;0.13;;;;;;;11.84;100.00;99315.65;1733017;81;21640;-51
2022/05/29 03:16:06;;;;;;;1.50;0.10;;;;;;;11.82;100.00;99314.42;1730935;81;21448;-48
2022/05/29 03:19:01;;;;;;;1.55;0.20;;;;;;;11.82;100.00;99309.03;1727300;80;21047;-49
2022/05/29 03:21:57;;;;;;;2.00;0.10;;;;;;;11.82;100.00;99296.02;1731364;80;21070;-50
2022/05/29 03:24:38;;;;;;;0.30;0.10;;;;;;;11.85;100.00;99297.16;1731429;80;21539;-50
2022/05/29 03:27:17;;;;;;;2.90;0.10;;;;;;;11.87;100.00;99304.21;1730303;82;21542;-49
2022/05/29 03:30:01;;;;;;;0.40;0.10;;;;;;;11.90;100.00;99317.52;1728924;81;21065;-50
2022/05/29 03:32:29;;;;;;;0.10;0.10;;;;;;;11.91;100.00;99323.27;1724989;81;21038;-49
2022/05/29 03:34:56;;;;;;;0.42;0.10;;;;;;;11.89;100.00;99332.44;1728951;80;21042;-50
2022/05/29 03:37:22;;;;;;;0.53;0.10;;;;;;;11.88;100.00;99338.79;1734608;80;21078;-50
2022/05/29 03:39:49;;;;;;;0.30;0.20;;;;;;;11.89;100.00;99342.75;1730879;80;21144;-50
2022/05/29 03:42:16;;;;;;;0.82;0.20;;;;;;;11.90;100.00;99353.06;1728605;81;20985;-49
2022/05/29 03:44:42;;;;;;;0.47;0.20;;;;;;;11.90;100.00;99358.45;1726515;80;21528;-50
2022/05/29 03:47:09;;;;;;;0.42;0.20;;;;;;;11.91;100.00;99352.94;1729665;80;21030;-50
2022/05/29 03:49:35;;;;;;;0.10;0.10;;;;;;;11.92;100.00;99351.98;1729775;81;21044;-50
2022/05/29 03:52:03;;;;;;;0.57;0.20;;;;;;;11.93;100.00;99353.73;1732368;80;21445;-50
2022/05/29 03:54:29;;;;;;;0.35;0.10;;;;;;;11.96;100.00;99364.34;1727705;80;20890;-50
2022/05/29 03:56:55;;;;;;;0.40;0.10;;;;;;;11.99;100.00;99358.74;1732172;81;21002;-50
2022/05/29 03:59:22;;;;;;;0.10;0.10;;;;;;;12.04;100.00;99369.27;1735314;80;20992;-50
2022/05/29 04:01:48;;;;;;;0.28;0.10;;;;;;;12.09;100.00;99368.02;1734313;80;20910;-50
2022/05/29 04:06:07;;;;;;;0.37;0.10;;;;;;;12.25;100.00;99372.52;1834799;76;23322;-49
2022/05/29 04:14:04;;;;;;;0.57;0.08;;;;;;;12.39;100.00;99382.84;1813617;77;20142;-49
2022/05/29 04:16:31;;;;;;;0.35;0.10;;;;;;;12.46;100.00;99381.98;1807278;77;21319;-50
2022/05/29 04:18:57;;;;;;;1.12;0.20;;;;;;;12.55;100.00;99389.98;1810556;77;21360;-49
2022/05/29 04:21:23;;;;;;;0.25;0.10;;;;;;;12.61;100.00;99387.77;1813506;77;20875;-50
2022/05/29 04:23:50;;;;;;;1.32;0.10;;;;;;;12.67;100.00;99385.19;1809110;77;21070;-49
2022/05/29 04:26:17;;;;;;;0.75;0.10;;;;;;;12.71;100.00;99393.47;1810873;77;20917;-50
2022/05/29 04:28:44;;;;;;;0.25;0.10;;;;;;;12.75;100.00;99388.28;1811077;77;21276;-51
2022/05/29 04:31:10;;;;;;;0.47;0.10;;;;;;;12.79;100.00;99387.97;1815857;77;20973;-51
2022/05/29 04:33:37;;;;;;;0.65;0.10;;;;;;;12.80;100.00;99388.84;1806473;78;21283;-51
2022/05/29 04:36:03;;;;;;;0.47;0.20;;;;;;;12.81;100.00;99391.94;1808673;77;21353;-50
2022/05/29 04:38:30;;;;;;;0.20;0.10;;;;;;;12.83;100.00;99392.71;1805038;77;21049;-49
2022/05/29 04:40:57;;;;;;;0.10;0.10;;;;;;;12.85;100.00;99396.16;1803898;77;21056;-51
2022/05/29 04:43:23;;;;;;;0.10;0.10;;;;;;;12.85;100.00;99394.33;1809104;77;21003;-51
2022/05/29 04:45:55;;;;;;;0.70;0.10;;;;;;;12.84;100.00;99388.53;1807503;77;21030;-50
2022/05/29 04:48:21;;;;;;;2.05;0.17;;;;;;;12.81;100.00;99396.85;1812072;77;21478;-50
2022/05/29 04:50:48;;;;;;;0.68;0.10;;;;;;;12.81;100.00;99399.55;1801237;77;21501;-50
2022/05/29 04:53:15;;;;;;;0.20;0.10;;;;;;;12.81;100.00;99400.91;1808739;77;21064;-49
2022/05/29 04:55:42;;;;;;;1.05;0.10;;;;;;;12.80;100.00;99403.70;1805210;77;21063;-51
2022/05/29 04:58:08;;;;;;;0.30;0.10;;;;;;;12.82;100.00;99395.02;1790834;78;21042;-49
2022/05/29 05:00:36;;;;;;;0.28;0.10;;;;;;;12.87;100.00;99401.86;1778531;78;21080;-49
2022/05/29 05:03:03;;;;;;;0.20;0.10;;;;;;;12.95;100.00;99400.02;1782485;78;21451;-50
2022/05/29 05:05:29;;;;;;;1.62;0.10;;;;;;;13.04;100.00;99403.97;1786298;78;21072;-49
2022/05/29 05:07:56;;;;;;;0.23;0.10;;;;;;;13.11;100.00;99408.02;1784215;78;21879;-46
2022/05/29 05:10:23;;;;;;;0.20;0.10;;;;;;;13.22;100.00;99406.41;1784965;78;21025;-45
2022/05/29 05:12:50;;;;;;;0.35;0.10;;;;;;;13.34;100.00;99399.34;1781529;78;21211;-49
2022/05/29 05:15:17;;;;;;;0.30;0.05;;;;;;;13.47;100.00;99403.45;1713491;81;21069;-48
2022/05/29 05:17:43;;;;;;;0.85;0.10;;;;;;;13.58;100.00;99399.09;1724481;81;21076;-46
2022/05/29 05:20:10;;;;;;;2.50;0.10;;;;;;;13.70;100.00;99397.87;1716819;81;21110;-44
2022/05/29 05:22:36;;;;;;;0.20;0.08;;;;;;;13.80;100.00;99403.05;1722203;81;21411;-44
2022/05/29 05:25:04;;;;;;;0.20;0.10;;;;;;;13.86;100.00;99410.78;1727323;81;21114;-50
2022/05/29 05:27:31;;;;;;;0.80;0.10;;;;;;;13.90;100.00;99401.47;1720744;81;21081;-49
2022/05/29 05:29:57;;;;;;;0.20;0.00;;;;;;;13.93;100.00;99405.34;1723535;81;20993;-50
2022/05/29 05:32:24;;;;;;;0.28;0.10;;;;;;;13.95;100.00;99402.89;1722996;81;21057;-50
2022/05/29 05:34:50;;;;;;;0.20;0.10;;;;;;;14.01;100.00;99411.09;1724675;81;21068;-51
2022/05/29 05:37:17;;;;;;;0.20;0.10;;;;;;;14.06;100.00;99413.48;1725383;81;21259;-50
2022/05/29 05:39:43;;;;;;;0.50;0.10;;;;;;;14.10;100.00;99410.96;1722942;81;21113;-51
2022/05/29 05:42:10;;;;;;;0.20;0.10;;;;;;;14.15;100.00;99415.56;1723402;81;21477;-51
2022/05/29 05:44:37;;;;;;;0.10;0.10;;;;;;;14.19;100.00;99419.81;1724213;81;21388;-53
2022/05/29 05:47:07;;;;;;;0.65;0.10;;;;;;;14.22;100.00;99427.22;1718941;81;21104;-51
2022/05/29 05:49:36;;;;;;;0.10;0.10;;;;;;;14.26;100.00;99419.28;1722021;81;22592;-50
2022/05/29 05:52:03;;;;;;;0.17;0.10;;;;;;;14.30;100.00;99420.79;1727581;81;21069;-51
2022/05/29 05:54:31;;;;;;;0.10;0.10;;;;;;;14.34;100.00;99416.05;1720614;81;21068;-50
2022/05/29 05:56:57;;;;;;;0.85;0.20;;;;;;;14.38;100.00;99418.45;1724877;81;22158;-51
2022/05/29 05:59:24;;;;;;;2.65;0.10;;;;;;;14.39;100.00;99412.55;1724384;81;21053;-51
2022/05/29 06:01:50;;;;;;;0.20;0.10;;;;;;;14.40;100.00;99417.00;1725994;81;21119;-49
2022/05/29 06:04:16;;;;;;;0.85;0.10;;;;;;;14.41;100.00;99416.52;1718563;81;21606;-50
2022/05/29 06:06:44;;;;;;;0.28;0.10;;;;;;;14.43;100.00;99418.16;1729808;81;21557;-49
2022/05/29 06:09:10;;;;;;;1.80;0.10;;;;;;;14.48;100.00;99420.05;1731856;81;21052;-51
2022/05/29 06:11:39;;;;;;;0.20;0.10;;;;;;;14.51;100.00;99417.13;1717045;81;21734;-52
2022/05/29 06:14:07;;;;;;;0.10;0.10;;;;;;;14.55;100.00;99425.89;1725112;82;21889;-52
2022/05/29 06:16:36;;;;;;;1.00;0.10;;;;;;;14.57;100.00;99420.76;1745758;80;20975;-50
2022/05/29 06:19:04;;;;;;;0.93;0.10;;;;;;;14.60;100.00;99419.20;1750730;80;21069;-51
2022/05/29 06:21:31;;;;;;;0.62;0.10;;;;;;;14.63;100.00;99421.67;1744721;80;21481;-50
2022/05/29 06:23:57;;;;;;;0.20;0.10;;;;;;;14.75;100.00;99427.60;1749812;80;21084;-52
2022/05/29 06:26:24;;;;;;;0.10;0.10;;;;;;;14.75;100.00;99427.60;1744861;80;22515;-51
2022/05/29 06:28:51;;;;;;;1.70;0.20;;;;;;;14.82;100.00;99423.09;1733478;81;21135;-53
2022/05/29 06:31:17;;;;;;;1.02;0.20;;;;;;;14.85;100.00;99423.76;1730452;81;21044;-51
2022/05/29 06:33:44;;;;;;;1.72;0.20;;;;;;;14.91;100.00;99421.95;1747297;80;21103;-52
2022/05/29 06:36:16;;;;;;;1.40;0.10;;;;;;;15.02;100.00;99421.20;1745063;80;21735;-50
2022/05/29 06:38:45;;;;;;;0.93;0.10;;;;;;;15.14;100.00;99421.69;1747748;80;21991;-53
2022/05/29 06:41:12;;;;;;;0.20;0.10;;;;;;;15.22;100.00;99421.13;1728727;81;21596;-51
2022/05/29 06:43:39;;;;;;;0.57;0.10;;;;;;;15.40;100.00;99419.77;1734059;81;21607;-52
2022/05/29 06:46:06;;;;;;;0.82;0.13;;;;;;;15.40;100.00;99419.77;1720502;81;21129;-52
2022/05/29 06:48:34;;;;;;;0.20;0.10;;;;;;;15.46;100.00;99425.62;1731344;81;21334;-52
2022/05/29 06:51:08;;;;;;;0.13;0.10;;;;;;;15.46;100.00;99425.62;1731771;81;21613;-53
2022/05/29 06:53:36;;;;;;;0.10;0.10;;;;;;;15.51;100.00;99431.57;1730014;81;21036;-53
2022/05/29 06:56:04;;;;;;;0.40;0.00;;;;;;;15.61;100.00;99430.44;1728223;81;21061;-52
2022/05/29 06:58:31;;;;;;;0.37;0.10;;;;;;;15.61;100.00;99430.44;1714516;82;22260;-50
2022/05/29 07:09:20;;;;;;;0.55;0.20;;;;;;;15.84;100.00;99421.94;1733440;81;20906;-52
2022/05/29 07:11:46;;;;;;;0.25;0.10;;;;;;;15.88;100.00;99427.52;1724624;81;21538;-51
2022/05/29 07:14:13;;;;;;;0.17;0.10;;;;;;;15.89;100.00;99431.48;1750304;80;21064;-51
2022/05/29 07:16:40;;;;;;;0.57;0.13;;;;;;;15.92;100.00;99436.28;1702905;80;20957;-51
2022/05/29 07:19:07;;;;;;;0.20;0.10;;;;;;;15.96;100.00;99427.81;1718285;81;20938;-51
2022/05/29 07:21:38;;;;;;;0.70;0.10;;;;;;;16.04;100.00;99432.66;1733507;80;21122;-52
2022/05/29 07:24:05;;;;;;;0.30;0.00;;;;;;;16.13;100.00;99431.48;1720519;81;20970;-52
2022/05/29 07:26:33;;;;;;;0.20;0.10;;;;;;;16.21;100.00;99433.11;1754311;80;20989;-50
2022/05/29 07:29:01;;;;;;;0.95;0.10;;;;;;;16.21;100.00;99436.31;1751149;80;20906;-53
2022/05/29 07:31:27;;;;;;;2.05;0.10;;;;;;;16.19;100.00;99428.28;1750176;80;21481;-50
2022/05/29 07:33:53;;;;;;;0.30;0.15;;;;;;;16.23;100.00;99428.44;1726759;81;20878;-51
2022/05/29 07:36:21;;;;;;;0.95;0.10;;;;;;;16.30;100.00;99431.55;1732341;81;20937;-50
2022/05/29 07:38:47;;;;;;;3.02;0.15;;;;;;;16.36;100.00;99441.92;1731491;81;21538;-51
2022/05/29 07:44:00;;;;;;;0.35;0.10;;;;;;;16.49;100.00;99438.66;1728451;81;21088;-50
2022/05/29 07:46:26;;;;;;;1.37;0.10;;;;;;;16.61;100.00;99435.49;1727057;81;21057;-51
2022/05/29 07:48:52;;;;;;;0.13;0.10;;;;;;;16.73;100.00;99437.27;1728315;81;21139;-50
2022/05/29 07:51:19;;;;;;;0.55;0.10;;;;;;;16.78;100.00;99445.91;1724751;81;21597;-51
2022/05/29 07:53:46;;;;;;;0.60;0.10;;;;;;;16.85;100.00;99444.93;1727853;81;21149;-51
2022/05/29 07:56:16;;;;;;;0.62;0.20;;;;;;;16.91;100.00;99441.26;1728094;81;21100;-52
2022/05/29 07:58:42;;;;;;;0.60;0.15;;;;;;;16.99;100.00;99435.21;1728643;81;21139;-50
2022/05/29 08:01:08;;;;;;;0.82;0.20;;;;;;;17.08;100.00;99438.55;1725965;81;21826;-53
2022/05/29 08:03:34;;;;;;;0.42;0.10;;;;;;;17.14;100.00;99440.78;1728976;81;21076;-54
2022/05/29 08:06:02;;;;;;;0.30;0.10;;;;;;;17.18;100.00;99436.80;1730672;81;21532;-54
2022/05/29 08:08:29;;;;;;;1.30;0.10;;;;;;;17.15;100.00;99434.35;1727150;81;21143;-54
2022/05/29 08:10:56;;;;;;;0.10;0.10;;;;;;;17.11;100.00;99446.94;1727772;81;21147;-55
2022/05/29 08:13:22;;;;;;;0.30;0.10;;;;;;;17.08;100.00;99447.20;1724482;81;21068;-55
2022/05/29 08:15:48;;;;;;;0.42;0.15;;;;;;;17.11;100.00;99449.17;1725442;81;21786;-55
2022/05/29 08:18:15;;;;;;;1.65;0.20;;;;;;;17.18;100.00;99453.13;1728265;81;21203;-54
2022/05/29 08:20:42;;;;;;;0.20;0.17;;;;;;;17.24;100.00;99453.14;1726146;81;21116;-54
2022/05/29 08:23:08;;;;;;;0.20;0.10;;;;;;;17.24;100.00;99456.73;1727817;81;21093;-55
2022/05/29 08:31:05;;;;;;;0.30;0.10;;;;;;;17.28;100.00;99456.84;1716810;81;21128;-55
2022/05/29 08:33:33;;;;;;;0.20;0.10;;;;;;;17.36;100.00;99450.78;1712791;82;21316;-54
2022/05/29 08:36:10;;;;;;;1.17;0.10;;;;;;;17.47;100.00;99452.64;1739458;81;21507;-54
2022/05/29 08:38:40;;;;;;;0.20;0.10;;;;;;;17.60;100.00;99448.81;1741042;80;21081;-56
2022/05/29 08:41:10;;;;;;;1.22;0.10;;;;;;;17.76;100.00;99453.40;1735724;80;21050;-55
2022/05/29 08:44:01;;;;;;;0.10;0.10;;;;;;;17.85;100.00;99457.72;1739497;80;21066;-56
2022/05/29 08:46:35;;;;;;;0.20;0.10;;;;;;;17.85;100.00;99465.88;1682209;81;21049;-55
2022/05/29 08:49:01;;;;;;;0.40;0.20;;;;;;;17.83;100.00;99455.61;1710650;81;21032;-55
2022/05/29 08:52:16;;;;;;;0.50;0.10;;;;;;;17.85;100.00;99449.55;1709374;82;21089;-54
2022/05/29 08:55:13;;;;;;;0.30;0.10;;;;;;;17.92;100.00;99445.31;1712685;82;21631;-53
2022/05/29 08:58:02;;;;;;;0.57;0.10;;;;;;;18.04;100.00;99443.78;1703567;82;22018;-54
2022/05/29 09:00:50;;;;;;;0.20;0.10;;;;;;;18.18;100.00;99440.41;1716131;81;21073;-54
2022/05/29 09:03:45;;;;;;;2.50;0.20;;;;;;;18.31;100.00;99441.95;1742849;80;21080;-54
2022/05/29 09:06:18;;;;;;;;;;;;;;;18.43;100.00;99445.01;1718162;81;21163;-54
2022/05/29 09:09:05;;;;;;;0.30;0.10;;;;;;;18.51;100.00;99436.17;1720459;82;20175;-54
2022/05/29 09:11:54;;;;;;;1.50;0.10;;;;;;;18.50;100.00;99434.44;1720902;81;21125;-55
2022/05/29 09:14:40;;;;;;;0.30;0.10;;;;;;;18.53;100.00;99436.42;1716773;81;21085;-55
2022/05/29 09:17:35;;;;;;;0.33;0.10;;;;;;;18.62;100.00;99440.74;1718707;81;21065;-55
2022/05/29 09:20:27;;;;;;;0.30;0.10;;;;;;;18.69;100.00;99442.80;1721825;81;21116;-56
2022/05/29 09:22:56;;;;;;;0.30;0.13;;;;;;;18.78;100.00;99446.09;1722264;81;21492;-55
2022/05/29 09:25:39;;;;;;;0.20;0.20;;;;;;;18.91;100.00;99444.52;1714348;81;21486;-54
2022/05/29 09:28:18;;;;;;;2.67;0.23;;;;;;;19.04;100.00;99436.14;1723016;81;21112;-55
2022/05/29 09:30:45;;;;;;;2.67;0.28;;;;;;;19.17;100.00;99439.00;1720678;81;21116;-54
2022/05/29 09:33:25;;;;;;;0.40;0.20;;;;;;;19.29;100.00;99434.33;1720765;81;21387;-54
2022/05/29 09:36:31;;;;;;;2.30;0.10;;;;;;;19.39;100.00;99442.06;1716104;81;21053;-54
2022/05/29 09:39:11;;;;;;;0.57;0.10;;;;;;;19.49;100.00;99438.88;1712731;81;21696;-53
2022/05/29 09:41:58;;;;;;;0.10;0.10;;;;;;;19.60;100.00;99444.75;1715310;81;21426;-53
2022/05/29 09:44:25;;;;;;;0.10;0.10;;;;;;;19.67;100.00;99432.27;1717701;81;21061;-53
2022/05/29 09:46:52;;;;;;;0.20;0.10;;;;;;;19.74;100.00;99436.16;1719456;81;21025;-54
2022/05/29 09:49:49;;;;;;;0.20;0.10;;;;;;;19.78;100.00;99432.16;1721740;81;21128;-54
2022/05/29 09:52:24;;;;;;;3.20;0.15;;;;;;;19.82;100.00;99442.31;1713987;81;21123;-54
2022/05/29 09:54:58;;;;;;;1.27;0.20;;;;;;;19.82;100.00;99431.39;1720474;81;21550;-54
2022/05/29 09:57:42;;;;;;;0.37;0.10;;;;;;;19.85;100.00;99436.05;1716431;81;21116;-56
2022/05/29 10:00:32;;;;;;;0.25;0.10;;;;;;;19.92;100.00;99433.11;1722268;81;20931;-54
2022/05/29 10:02:59;;;;;;;0.88;0.20;;;;;;;19.96;100.00;99440.04;1720201;81;21393;-55
2022/05/29 10:05:28;;;;;;;0.28;0.10;;;;;;;20.00;100.00;99439.23;1691903;82;21129;-55
2022/05/29 10:07:57;;;;;;;0.40;0.10;;;;;;;20.00;100.00;99435.14;1720042;81;21472;-55
2022/05/29 10:10:30;;;;;;;0.20;0.10;;;;;;;20.00;100.00;99444.70;1722473;81;21109;-54
2022/05/29 10:12:58;;;;;;;1.75;0.10;;;;;;;20.03;100.00;99440.33;1720367;81;21085;-55
2022/05/29 10:15:30;;;;;;;0.35;0.10;;;;;;;20.04;100.00;99429.77;1721593;82;21002;-55
2022/05/29 10:18:01;;;;;;;2.52;0.10;;;;;;;20.10;100.00;99437.39;1722243;81;21450;-55
2022/05/29 10:20:37;;;;;;;0.28;0.20;;;;;;;20.17;100.00;99431.71;1719049;81;20981;-54
2022/05/29 10:23:09;;;;;;;0.10;0.10;;;;;;;20.28;100.00;99437.05;1722781;81;21480;-54
2022/05/29 10:25:42;;;;;;;0.15;0.10;;;;;;;20.30;100.00;99425.48;1724180;81;20910;-55
2022/05/29 10:28:14;;;;;;;0.30;0.20;;;;;;;20.30;100.00;99436.41;1714162;81;21044;-53
2022/05/29 10:30:50;;;;;;;2.52;0.10;;;;;;;20.29;100.00;99443.38;1715228;81;21427;-55
2022/05/29 10:33:20;;;;;;;2.37;0.15;;;;;;;20.23;100.00;99442.09;1747483;80;20894;-54
2022/05/29 10:35:46;;;;;;;0.23;0.10;;;;;;;20.13;100.00;99438.98;1707481;82;21395;-55
2022/05/29 10:38:22;;;;;;;1.15;0.10;;;;;;;19.97;100.00;99435.44;1744722;80;22531;-54
2022/05/29 10:40:52;;;;;;;0.20;0.10;;;;;;;19.75;100.00;99441.98;1747548;80;20966;-55
2022/05/29 10:43:46;;;;;;;0.20;0.10;;;;;;;19.63;100.00;99439.89;1743147;80;21106;-56
2022/05/29 10:46:22;;;;;;;1.22;0.10;;;;;;;19.65;100.00;99438.36;1749425;80;21409;-55
2022/05/29 10:49:25;;;;;;;0.10;0.10;;;;;;;19.77;100.00;99432.29;1745539;80;21000;-54
2022/05/29 10:52:18;;;;;;;0.20;0.10;;;;;;;19.85;100.00;99424.27;1715272;81;21048;-54
2022/05/29 10:55:06;;;;;;;0.30;0.10;;;;;;;19.88;100.00;99428.09;1723503;81;21676;-54
2022/05/29 10:57:50;;;;;;;0.20;0.17;;;;;;;19.88;100.00;99441.25;1716993;81;23148;-56
2022/05/29 11:00:55;;;;;;;1.65;0.20;;;;;;;19.81;100.00;99444.18;1724635;81;21082;-56
2022/05/29 11:03:34;;;;;;;0.57;0.10;;;;;;;19.69;100.00;99434.36;1719747;81;21053;-55
2022/05/29 11:06:24;;;;;;;0.35;0.10;;;;;;;19.63;100.00;99435.79;1720413;81;20911;-55
2022/05/29 11:09:19;;;;;;;0.10;0.10;;;;;;;19.64;100.00;99435.29;1717043;81;21068;-55
2022/05/29 11:12:16;;;;;;;0.20;0.10;;;;;;;19.68;100.00;99429.03;1716374;81;21116;-55
2022/05/29 11:15:10;;;;;;;0.50;0.10;;;;;;;19.69;100.00;99432.99;1718669;81;21752;-55
2022/05/29 11:18:00;;;;;;;0.10;0.10;;;;;;;19.64;100.00;99427.97;1724820;81;21268;-56
2022/05/29 11:20:48;;;;;;;0.17;0.10;;;;;;;19.60;100.00;99431.09;1745487;80;21121;-56
2022/05/29 11:23:47;;;;;;;0.08;0.03;;;;;;;19.59;100.00;99419.31;1744260;80;21089;-56
2022/05/29 11:26:37;;;;;;;0.17;0.10;;;;;;;19.52;100.00;99426.33;1745634;80;21139;-56
2022/05/29 11:29:48;;;;;;;1.57;0.10;;;;;;;19.41;100.00;99419.56;1742016;80;21540;-55
2022/05/29 11:32:34;;;;;;;0.10;0.10;;;;;;;19.32;100.00;99427.21;1727463;81;21083;-56
2022/05/29 11:35:47;;;;;;;1.55;0.10;;;;;;;19.31;100.00;99431.47;1718142;81;21040;-55
2022/05/29 11:38:22;;;;;;;0.10;0.00;;;;;;;19.36;100.00;99431.41;1684953;80;21026;-54
2022/05/29 11:41:00;;;;;;;0.45;0.10;;;;;;;19.39;100.00;99436.61;1694791;80;21641;-55
2022/05/29 11:43:31;;;;;;;0.65;0.10;;;;;;;19.42;100.00;99424.53;1732610;80;21395;-56
2022/05/29 11:52:32;;;;;;;0.20;0.10;;;;;;;19.60;100.00;99427.86;1713314;80;21112;-56
2022/05/29 11:55:15;;;;;;;0.17;0.10;;;;;;;19.60;100.00;99419.67;1736147;80;21113;-56
2022/05/29 11:57:57;;;;;;;0.50;0.10;;;;;;;19.56;100.00;99412.75;1735050;80;21372;-58
2022/05/29 12:00:50;;;;;;;1.95;0.10;;;;;;;19.58;100.00;99417.58;1736949;80;21073;-56
2022/05/29 12:03:31;;;;;;;0.10;0.10;;;;;;;19.64;100.00;99415.68;1731655;80;21148;-59
2022/05/29 12:06:32;;;;;;;2.55;0.15;;;;;;;19.77;100.00;99418.64;1721011;81;21613;-59
2022/05/29 12:09:16;;;;;;;0.13;0.10;;;;;;;19.84;100.00;99411.11;1723607;81;21881;-56
2022/05/29 12:12:02;;;;;;;0.20;0.10;;;;;;;19.93;100.00;99417.59;1742689;80;21360;-55
2022/05/29 12:14:39;;;;;;;0.20;0.10;;;;;;;20.02;100.00;99417.61;1738568;80;21829;-55
2022/05/29 12:17:32;;;;;;;0.88;0.10;;;;;;;20.13;100.00;99408.92;1747871;80;21408;-55
2022/05/29 12:20:33;;;;;;;0.20;0.10;;;;;;;20.17;100.00;99409.85;1748546;80;21076;-56
2022/05/29 12:23:05;;;;;;;0.20;0.10;;;;;;;20.24;100.00;99419.73;1741483;80;21076;-55
2022/05/29 12:25:48;;;;;;;0.17;0.10;;;;;;;20.27;100.00;99416.69;1742453;80;21078;-55
2022/05/29 12:28:25;;;;;;;0.13;0.10;;;;;;;20.28;100.00;99413.82;1743216;80;21096;-56
2022/05/29 12:30:52;;;;;;;0.98;0.10;;;;;;;20.35;100.00;99419.09;1710729;81;21113;-55
2022/05/29 12:33:22;;;;;;;1.37;0.10;;;;;;;20.41;100.00;99409.48;1744434;80;22225;-57
2022/05/29 12:36:14;;;;;;;0.10;0.10;;;;;;;20.45;100.00;99406.80;1713007;81;21078;-54